createdAt,value
2019-01-06T00:02:26.134Z,4.43
2019-01-06T00:05:05.741Z,5.40
2019-01-06T00:07:48.707Z,5.03
2019-01-06T00:10:19.805Z,5.30
2019-01-06T00:12:53.764Z,4.83
2019-01-06T00:15:30.751Z,4.80
2019-01-06T00:18:10.914Z,4.40
2019-01-06T00:20:57.927Z,6.00
2019-01-06T00:23:29.045Z,4.70
2019-01-06T00:26:00.161Z,4.57
2019-01-06T00:28:47.451Z,4.67
2019-01-06T00:31:24.274Z,5.10
2019-01-06T00:34:11.721Z,5.00
2019-01-06T00:36:59.090Z,4.97
2019-01-06T00:39:30.166Z,4.43
2019-01-06T00:42:03.896Z,4.77
2019-01-06T00:44:37.427Z,4.43
2019-01-06T00:47:08.575Z,4.70
2019-01-06T00:49:39.636Z,4.40
2019-01-06T00:52:26.888Z,5.37
2019-01-06T00:55:06.604Z,4.90
2019-01-06T00:57:40.250Z,4.83
2019-01-06T01:00:14.465Z,5.50
2019-01-06T01:02:45.542Z,5.23
2019-01-06T01:05:19.468Z,4.83
2019-01-06T01:07:50.608Z,5.00
2019-01-06T01:10:37.819Z,5.00
2019-01-06T01:13:17.957Z,4.87
2019-01-06T01:15:51.625Z,4.47
2019-01-06T01:18:22.824Z,4.63
2019-01-06T01:20:53.897Z,5.30
2019-01-06T01:23:42.953Z,5.03
2019-01-06T01:26:14.011Z,5.00
2019-01-06T01:28:53.916Z,4.60
2019-01-06T01:31:40.914Z,4.93
2019-01-06T01:34:18.066Z,5.27
2019-01-06T01:36:55.096Z,5.10
2019-01-06T01:39:26.205Z,5.03
2019-01-06T01:42:06.236Z,5.47
2019-01-06T01:44:53.399Z,5.03
2019-01-06T01:47:24.501Z,5.43
2019-01-06T01:50:11.793Z,5.47
2019-01-06T01:52:42.885Z,5.07
2019-01-06T01:55:29.037Z,5.17
2019-01-06T01:58:18.016Z,4.87
2019-01-06T02:00:49.122Z,5.37
2019-01-06T02:03:26.399Z,4.67
2019-01-06T02:06:09.343Z,5.57
2019-01-06T02:08:42.904Z,5.33
2019-01-06T02:11:16.880Z,5.03
2019-01-06T02:13:47.982Z,5.17
2019-01-06T02:19:00.944Z,5.43
2019-01-06T02:21:47.989Z,5.13
2019-01-06T02:24:21.777Z,5.47
2019-01-06T02:27:01.723Z,5.23
2019-01-06T02:29:35.591Z,5.23
2019-01-06T02:32:18.667Z,5.67
2019-01-06T02:35:01.955Z,6.37
2019-01-06T02:37:49.387Z,6.30
2019-01-06T02:40:20.499Z,6.07
2019-01-06T02:42:57.617Z,6.00
2019-01-06T02:45:28.816Z,6.13
2019-01-06T02:48:12.160Z,6.07
2019-01-06T02:50:55.472Z,6.77
2019-01-06T02:53:38.298Z,6.20
2019-01-06T02:56:09.416Z,6.70
2019-01-06T02:58:49.451Z,7.17
2019-01-06T03:01:36.830Z,7.47
2019-01-06T03:04:19.674Z,8.20
2019-01-06T03:06:59.970Z,8.43
2019-01-06T03:09:47.625Z,8.93
2019-01-06T03:12:24.510Z,9.60
2019-01-06T03:14:58.370Z,8.57
2019-01-06T03:17:38.514Z,9.40
2019-01-06T03:20:25.876Z,9.37
2019-01-06T03:23:05.900Z,9.43
2019-01-06T03:25:39.742Z,9.00
2019-01-06T03:28:16.491Z,9.30
2019-01-06T03:30:56.523Z,9.93
2019-01-06T03:33:44.095Z,10.63
2019-01-06T03:36:31.297Z,9.83
2019-01-06T03:39:08.239Z,9.80
2019-01-06T03:41:54.451Z,9.67
2019-01-06T03:44:25.538Z,10.27
2019-01-06T03:47:12.958Z,11.17
2019-01-06T03:49:44.065Z,10.83
2019-01-06T03:52:21.183Z,10.00
2019-01-06T03:55:08.361Z,10.87
2019-01-06T03:57:45.298Z,11.53
2019-01-06T04:00:22.223Z,11.13
2019-01-06T04:02:53.339Z,11.90
2019-01-06T04:05:26.969Z,11.47
2019-01-06T04:08:00.631Z,11.43
2019-01-06T04:10:47.729Z,12.17
2019-01-06T04:13:18.916Z,12.30
2019-01-06T04:15:59.085Z,12.23
2019-01-06T04:18:30.262Z,12.03
2019-01-06T04:21:17.355Z,12.70
2019-01-06T04:24:08.011Z,11.60
2019-01-06T04:26:57.016Z,12.07
2019-01-06T04:29:39.903Z,12.27
2019-01-06T04:32:13.607Z,11.43
2019-01-06T04:34:50.452Z,11.70
2019-01-06T04:37:39.703Z,11.27
2019-01-06T04:40:13.357Z,11.40
2019-01-06T04:42:53.527Z,10.67
2019-01-06T04:45:27.540Z,10.80
2019-01-06T04:48:14.675Z,10.97
2019-01-06T04:51:02.066Z,10.70
2019-01-06T04:53:35.982Z,10.17
2019-01-06T04:56:18.895Z,10.57
2019-01-06T04:58:49.962Z,10.00
2019-01-06T05:01:36.975Z,10.33
2019-01-06T05:04:08.086Z,9.73
2019-01-06T05:06:54.108Z,9.67
2019-01-06T05:09:27.767Z,9.67
2019-01-06T05:12:14.098Z,10.00
2019-01-06T05:14:45.207Z,9.90
2019-01-06T05:17:32.409Z,9.43
2019-01-06T05:20:15.371Z,9.57
2019-01-06T05:22:52.582Z,10.17
2019-01-06T05:25:29.470Z,10.33
2019-01-06T05:28:00.510Z,11.63
2019-01-06T05:30:47.734Z,10.43
2019-01-06T05:33:21.441Z,10.90
2019-01-06T05:35:58.534Z,11.47
2019-01-06T05:38:32.075Z,11.27
2019-01-06T05:41:19.304Z,11.47
2019-01-06T05:43:50.383Z,11.23
2019-01-06T05:46:37.411Z,11.23
2019-01-06T05:49:11.109Z,11.23
2019-01-06T05:51:57.368Z,12.67
2019-01-06T05:54:28.475Z,11.37
2019-01-06T05:57:02.418Z,11.97
2019-01-06T05:59:33.488Z,13.57
2019-01-06T06:02:07.295Z,12.90
2019-01-06T06:04:53.572Z,12.23
2019-01-06T06:07:27.262Z,12.57
2019-01-06T06:10:04.193Z,12.50
2019-01-06T06:12:50.377Z,12.33
2019-01-06T06:15:36.792Z,12.20
2019-01-06T06:18:23.856Z,12.63
2019-01-06T06:20:57.969Z,13.27
2019-01-06T06:23:37.920Z,13.53
2019-01-06T06:26:25.075Z,12.30
2019-01-06T06:28:58.997Z,12.10
2019-01-06T06:31:30.167Z,13.43
2019-01-06T06:34:07.216Z,12.17
2019-01-06T06:36:44.237Z,12.80
2019-01-06T06:39:15.340Z,13.17
2019-01-06T06:41:46.426Z,12.80
2019-01-06T06:44:23.201Z,12.53
2019-01-06T06:47:12.448Z,12.67
2019-01-06T06:49:43.524Z,12.87
2019-01-06T06:52:17.396Z,13.33
2019-01-06T06:54:51.417Z,13.03
2019-01-06T06:58:27.193Z,13.10
2019-01-06T07:01:38.715Z,12.53
2019-01-06T07:04:12.677Z,13.60
2019-01-06T07:06:46.817Z,12.30
2019-01-06T07:09:20.476Z,12.43
2019-01-06T07:11:54.146Z,13.17
2019-01-06T07:14:28.033Z,12.80
2019-01-06T07:17:57.796Z,12.73
2019-01-06T07:20:34.275Z,13.43
2019-01-06T07:23:11.168Z,13.30
2019-01-06T07:25:51.389Z,13.37
2019-01-06T07:28:40.660Z,13.73
2019-01-06T07:31:28.129Z,13.43
2019-01-06T07:33:59.216Z,13.13
2019-01-06T07:36:33.022Z,13.53
2019-01-06T07:39:18.860Z,12.67
2019-01-06T07:41:52.766Z,12.77
2019-01-06T07:44:41.637Z,12.37
2019-01-06T07:47:15.313Z,13.00
2019-01-06T07:50:02.583Z,12.63
2019-01-06T07:52:33.684Z,12.37
2019-01-06T07:55:16.831Z,12.57
2019-01-06T07:57:53.667Z,12.30
2019-01-06T08:00:30.880Z,12.10
2019-01-06T08:03:16.623Z,12.37
2019-01-06T08:06:03.931Z,12.40
2019-01-06T08:08:37.854Z,12.47
2019-01-06T08:11:14.756Z,12.53
2019-01-06T08:13:51.687Z,11.93
2019-01-06T08:16:39.000Z,12.40
2019-01-06T08:19:16.195Z,12.43
2019-01-06T08:21:49.821Z,12.97
2019-01-06T08:24:20.937Z,12.33
2019-01-06T08:26:58.023Z,12.10
2019-01-06T08:29:45.143Z,12.03
2019-01-06T08:32:21.832Z,13.10
2019-01-06T08:35:09.206Z,11.20
2019-01-06T08:37:45.890Z,12.40
2019-01-06T08:40:33.373Z,13.20
2019-01-06T08:43:16.427Z,12.90
2019-01-06T08:46:03.522Z,12.87
2019-01-06T08:48:46.529Z,12.83
2019-01-06T08:51:33.577Z,12.03
2019-01-06T08:54:13.606Z,12.60
2019-01-06T08:56:44.676Z,12.83
2019-01-06T08:59:24.615Z,13.50
2019-01-06T09:01:55.760Z,14.17
2019-01-06T09:04:42.820Z,12.50
2019-01-06T09:07:16.923Z,12.73
2019-01-06T09:10:00.364Z,13.27
2019-01-06T09:12:45.301Z,12.63
2019-01-06T09:15:34.524Z,12.57
2019-01-06T09:18:14.337Z,12.70
2019-01-06T09:21:03.637Z,13.43
2019-01-06T09:23:49.926Z,13.37
2019-01-06T09:26:29.697Z,13.47
2019-01-06T09:29:17.040Z,11.70
2019-01-06T09:32:03.244Z,12.70
2019-01-06T09:37:07.129Z,12.53
2019-01-06T09:39:54.668Z,12.90
2019-01-06T09:42:31.951Z,12.17
2019-01-06T09:45:03.058Z,13.00
2019-01-06T09:47:34.238Z,12.53
2019-01-06T09:50:10.894Z,12.53
2019-01-06T09:52:58.953Z,11.97
2019-01-06T09:55:48.484Z,12.57
2019-01-06T09:58:29.159Z,13.30
2019-01-06T10:01:16.671Z,12.27
2019-01-06T10:03:59.902Z,12.90
2019-01-06T10:06:36.766Z,13.43
2019-01-06T10:09:29.190Z,12.77
2019-01-06T10:12:16.706Z,12.57
2019-01-06T10:15:00.799Z,13.00
2019-01-06T10:17:41.264Z,13.23
2019-01-06T10:20:24.488Z,13.27
2019-01-06T10:23:07.716Z,12.77
2019-01-06T10:25:50.946Z,12.67
2019-01-06T10:28:33.885Z,12.50
2019-01-06T10:33:59.651Z,12.27
2019-01-06T10:36:31.059Z,11.73
2019-01-06T10:39:17.370Z,12.37
2019-01-06T10:41:50.912Z,12.00
2019-01-06T10:44:38.901Z,12.67
2019-01-06T10:47:10.055Z,11.73
2019-01-06T10:49:57.547Z,11.90
2019-01-06T10:52:34.420Z,11.53
2019-01-06T10:55:06.071Z,10.83
2019-01-06T10:57:52.199Z,10.63
2019-01-06T11:00:29.278Z,11.27
2019-01-06T11:03:00.378Z,10.40
2019-01-06T11:05:43.393Z,9.20
2019-01-06T11:08:30.518Z,10.17
2019-01-06T11:11:16.791Z,9.40
2019-01-06T11:13:59.634Z,9.47
2019-01-06T11:16:33.501Z,9.57
2019-01-06T11:19:16.860Z,9.90
2019-01-06T11:22:06.296Z,8.77
2019-01-06T11:24:43.463Z,10.00
2019-01-06T11:27:14.552Z,10.27
2019-01-06T11:29:51.675Z,10.33
2019-01-06T11:32:39.041Z,9.83
2019-01-06T11:35:19.317Z,10.07
2019-01-06T11:37:52.984Z,8.80
2019-01-06T11:40:40.401Z,8.43
2019-01-06T11:43:17.108Z,8.70
2019-01-06T11:45:53.837Z,7.83
2019-01-06T11:48:40.962Z,8.13
2019-01-06T11:51:17.786Z,8.00
2019-01-06T11:54:04.121Z,8.80
2019-01-06T11:56:51.424Z,9.23
2019-01-06T11:59:34.433Z,8.80
2019-01-06T12:02:20.458Z,8.27
2019-01-06T12:05:00.332Z,9.87
2019-01-06T12:07:40.196Z,8.27
2019-01-06T12:10:29.533Z,8.37
2019-01-06T12:13:16.493Z,7.60
2019-01-06T12:15:50.221Z,6.90
2019-01-06T12:18:33.198Z,7.27
2019-01-06T12:21:04.366Z,6.63
2019-01-06T12:23:50.668Z,6.70
2019-01-06T12:26:33.469Z,6.17
2019-01-06T12:29:22.704Z,6.30
2019-01-06T12:31:56.413Z,6.87
2019-01-06T12:34:33.456Z,6.20
2019-01-06T12:37:07.157Z,6.27
2019-01-06T12:39:47.003Z,6.17
2019-01-06T12:42:36.135Z,5.83
2019-01-06T12:45:20.190Z,6.00
2019-01-06T12:48:00.227Z,5.33
2019-01-06T12:50:34.317Z,5.57
2019-01-06T12:53:11.176Z,6.30
2019-01-06T12:55:54.244Z,3.73
2019-01-06T12:58:41.603Z,4.57
2019-01-06T13:01:12.742Z,3.80
2019-01-06T13:03:56.067Z,3.90
2019-01-06T13:06:42.047Z,3.97
2019-01-06T13:09:29.454Z,13.73
2019-01-06T13:12:18.500Z,5.73
2019-01-06T13:14:49.666Z,4.00
2019-01-06T13:17:36.973Z,5.83
2019-01-06T13:20:25.390Z,6.37
2019-01-06T13:23:08.324Z,5.87
2019-01-06T13:25:54.386Z,4.40
2019-01-06T13:28:41.479Z,3.50
2019-01-06T13:31:18.220Z,4.30
2019-01-06T13:33:58.193Z,4.00
2019-01-06T13:36:29.353Z,7.43
2019-01-06T13:39:16.524Z,5.07
2019-01-06T13:41:59.519Z,5.80
2019-01-06T13:44:36.239Z,5.50
2019-01-06T13:47:07.335Z,5.30
2019-01-06T13:49:54.839Z,5.10
2019-01-06T13:52:31.517Z,6.10
2019-01-06T13:55:17.846Z,5.90
2019-01-06T13:58:00.326Z,6.27
2019-01-06T14:00:31.461Z,5.40
2019-01-06T14:03:18.564Z,5.93
2019-01-06T14:05:52.482Z,5.60
2019-01-06T14:08:35.641Z,6.50
2019-01-06T14:11:19.038Z,6.93
2019-01-06T14:13:52.778Z,7.30
2019-01-06T14:16:32.933Z,7.40
2019-01-06T14:19:20.253Z,7.63
2019-01-06T14:22:00.392Z,7.97
2019-01-06T14:24:48.006Z,7.00
2019-01-06T14:27:25.339Z,6.70
2019-01-06T14:29:56.842Z,6.87
2019-01-06T14:32:30.597Z,6.87
2019-01-06T14:35:18.064Z,7.70
2019-01-06T14:37:52.163Z,7.53
2019-01-06T14:40:32.384Z,8.67
2019-01-06T14:43:12.313Z,7.70
2019-01-06T14:45:43.446Z,9.00
2019-01-06T14:48:14.730Z,9.33
2019-01-06T14:51:02.698Z,8.83
2019-01-06T14:53:52.411Z,10.53
2019-01-06T14:56:23.920Z,10.07
2019-01-06T14:59:01.526Z,10.97
2019-01-06T15:01:50.291Z,11.23
2019-01-06T15:04:30.775Z,11.27
2019-01-06T15:07:17.965Z,11.17
2019-01-06T15:10:05.411Z,10.87
2019-01-06T15:12:39.141Z,10.87
2019-01-06T15:15:16.076Z,11.13
2019-01-06T15:18:03.500Z,11.17
2019-01-06T15:20:40.243Z,11.67
2019-01-06T15:23:27.619Z,11.30
2019-01-06T15:26:15.162Z,11.43
2019-01-06T15:28:46.265Z,10.63
2019-01-06T15:31:17.372Z,10.47
2019-01-06T15:33:48.486Z,11.37
2019-01-06T15:36:35.863Z,11.50
2019-01-06T15:39:24.738Z,10.87
2019-01-06T15:42:04.531Z,10.17
2019-01-06T15:44:35.642Z,11.40
2019-01-06T15:47:15.704Z,11.20
2019-01-06T15:50:02.922Z,11.13
2019-01-06T15:52:39.922Z,10.47
2019-01-06T15:55:11.224Z,10.53
2019-01-06T15:57:42.312Z,11.30
2019-01-06T16:00:28.825Z,10.87
2019-01-06T16:03:02.726Z,10.87
2019-01-06T16:05:36.742Z,11.10
2019-01-06T16:08:22.676Z,11.10
2019-01-06T16:11:09.812Z,12.00
2019-01-06T16:13:57.398Z,11.87
2019-01-06T16:16:28.564Z,11.83
2019-01-06T16:19:08.425Z,11.10
2019-01-06T16:21:39.605Z,11.23
2019-01-06T16:24:16.383Z,12.50
2019-01-06T16:27:03.539Z,11.60
2019-01-06T16:29:46.786Z,11.73
2019-01-06T16:32:17.966Z,11.60
2019-01-06T16:35:00.900Z,11.43
2019-01-06T16:37:40.960Z,11.47
2019-01-06T16:40:12.091Z,11.60
2019-01-06T16:42:45.766Z,11.70
2019-01-06T16:45:16.978Z,11.07
2019-01-06T16:47:51.035Z,11.20
2019-01-06T16:50:38.129Z,10.70
2019-01-06T16:53:25.212Z,10.93
2019-01-06T16:56:12.394Z,10.27
2019-01-06T16:59:00.015Z,11.10
2019-01-06T17:01:31.195Z,10.13
2019-01-06T17:04:18.442Z,10.63
2019-01-06T17:07:05.719Z,10.13
2019-01-06T17:09:54.978Z,10.13
2019-01-06T17:12:38.074Z,11.10
2019-01-06T17:15:15.004Z,10.77
2019-01-06T17:18:02.155Z,11.10
2019-01-06T17:20:49.186Z,10.63
2019-01-06T17:23:23.164Z,10.23
2019-01-06T17:25:56.955Z,11.30
2019-01-06T17:28:44.522Z,10.33
2019-01-06T17:31:15.624Z,10.63
2019-01-06T17:34:03.075Z,10.77
2019-01-06T17:36:42.775Z,10.80
2019-01-06T17:39:20.275Z,10.63
2019-01-06T17:42:09.703Z,11.07
2019-01-06T17:44:43.291Z,10.77
2019-01-06T17:47:14.360Z,11.33
2019-01-06T17:49:51.792Z,10.40
2019-01-06T17:52:28.517Z,10.73
2019-01-06T17:55:02.324Z,10.80
2019-01-06T17:57:33.410Z,11.03
2019-01-06T18:00:07.198Z,11.03
2019-01-06T18:02:54.557Z,10.47
2019-01-06T18:05:31.284Z,11.00
2019-01-06T18:08:05.119Z,10.23
2019-01-06T18:10:52.837Z,11.43
2019-01-06T18:13:26.486Z,11.13
2019-01-06T18:16:15.755Z,12.33
2019-01-06T18:19:01.628Z,11.97
2019-01-06T18:21:38.616Z,12.53
2019-01-06T18:24:18.738Z,12.20
2019-01-06T18:26:55.514Z,12.10
2019-01-06T18:29:38.374Z,11.67
2019-01-06T18:32:18.607Z,11.87
2019-01-06T18:37:54.911Z,12.23
2019-01-06T18:40:42.338Z,11.10
2019-01-06T18:43:13.455Z,11.67
2019-01-06T18:45:59.517Z,13.43
2019-01-06T18:48:33.608Z,12.13
2019-01-06T18:51:07.429Z,11.73
2019-01-06T18:53:54.501Z,13.13
2019-01-06T18:56:40.745Z,12.90
2019-01-06T18:59:20.775Z,12.20
2019-01-06T19:02:08.075Z,12.10
2019-01-06T19:04:41.709Z,12.07
2019-01-06T19:07:18.448Z,11.70
2019-01-06T19:10:06.390Z,12.90
2019-01-06T19:12:37.479Z,11.90
2019-01-06T19:15:08.701Z,12.30
2019-01-06T19:17:56.117Z,12.60
2019-01-06T19:20:27.196Z,12.20
2019-01-06T19:22:58.330Z,13.53
2019-01-06T19:25:47.823Z,13.60
2019-01-06T19:28:24.552Z,12.80
2019-01-06T19:31:01.821Z,13.17
2019-01-06T19:33:44.764Z,12.87
2019-01-06T19:36:27.735Z,13.37
2019-01-06T19:39:01.633Z,13.40
2019-01-06T19:41:35.379Z,13.97
2019-01-06T19:44:22.557Z,12.60
2019-01-06T19:47:11.225Z,13.77
2019-01-06T19:49:45.143Z,14.00
2019-01-06T19:52:22.115Z,14.17
2019-01-06T19:55:09.305Z,13.93
2019-01-06T19:57:47.038Z,13.53
2019-01-06T20:00:25.086Z,13.83
2019-01-06T20:02:56.250Z,14.03
2019-01-06T20:05:43.544Z,14.03
2019-01-06T20:08:14.815Z,13.47
2019-01-06T20:10:45.934Z,13.93
2019-01-06T20:13:19.607Z,13.40
2019-01-06T20:15:50.721Z,14.10
2019-01-06T20:18:21.903Z,14.47
2019-01-06T20:20:58.873Z,16.20
2019-01-06T20:23:32.941Z,16.17
2019-01-06T20:26:04.064Z,15.53
2019-01-06T20:28:35.175Z,14.47
2019-01-06T20:31:24.328Z,14.87
2019-01-06T20:34:11.667Z,14.53
2019-01-06T20:36:51.415Z,12.90
2019-01-06T20:39:38.897Z,15.90
2019-01-06T20:42:21.869Z,13.43
2019-01-06T20:44:58.767Z,16.23
2019-01-06T20:47:44.988Z,17.10
2019-01-06T20:50:32.523Z,17.07
2019-01-06T20:53:12.789Z,17.00
2019-01-06T20:56:00.068Z,17.37
2019-01-06T20:58:43.252Z,17.43
2019-01-06T21:01:16.979Z,16.67
2019-01-06T21:03:50.936Z,18.20
2019-01-06T21:06:30.725Z,19.33
2019-01-06T21:09:16.990Z,17.40
2019-01-06T21:11:48.091Z,17.83
2019-01-06T21:14:35.445Z,18.47
2019-01-06T21:17:06.621Z,18.03
2019-01-06T21:19:40.366Z,17.60
2019-01-06T21:22:27.892Z,19.17
2019-01-06T21:25:07.858Z,18.93
2019-01-06T21:27:54.165Z,16.53
2019-01-06T21:30:41.647Z,18.63
2019-01-06T21:33:12.735Z,16.50
2019-01-06T21:35:46.589Z,17.47
2019-01-06T21:38:32.531Z,19.37
2019-01-06T21:41:19.896Z,20.13
2019-01-06T21:43:56.910Z,21.30
2019-01-06T21:46:28.026Z,20.47
2019-01-06T21:48:59.148Z,19.27
2019-01-06T21:51:42.420Z,20.10
2019-01-06T21:54:29.520Z,20.03
2019-01-06T21:57:18.969Z,21.20
2019-01-06T22:00:05.951Z,19.83
2019-01-06T22:02:51.918Z,19.93
2019-01-06T22:05:23.018Z,19.47
2019-01-06T22:07:54.129Z,20.33
2019-01-06T22:10:37.127Z,19.87
2019-01-06T22:13:20.330Z,19.93
2019-01-06T22:16:06.462Z,19.80
2019-01-06T22:18:37.612Z,20.63
2019-01-06T22:21:11.618Z,19.00
2019-01-06T22:23:51.687Z,20.30
2019-01-06T22:26:38.957Z,19.33
2019-01-06T22:29:10.057Z,20.70
2019-01-06T22:31:43.753Z,19.93
2019-01-06T22:34:31.090Z,21.43
2019-01-06T22:37:17.399Z,22.27
2019-01-06T22:39:48.518Z,21.30
2019-01-06T22:42:31.545Z,22.03
2019-01-06T22:45:02.653Z,21.60
2019-01-06T22:47:36.195Z,22.97
2019-01-06T22:50:19.917Z,21.93
2019-01-06T22:53:08.859Z,22.40
2019-01-06T22:55:52.092Z,24.10
2019-01-06T22:58:38.031Z,23.03
2019-01-06T23:01:12.196Z,21.63
2019-01-06T23:03:59.665Z,21.37
2019-01-06T23:06:47.131Z,21.37
2019-01-06T23:09:34.190Z,21.37
2019-01-06T23:12:21.566Z,22.43
2019-01-06T23:15:08.915Z,22.90
2019-01-06T23:17:48.915Z,24.07
2019-01-06T23:20:22.569Z,22.27
2019-01-06T23:22:53.716Z,22.63
2019-01-06T23:25:41.134Z,24.30
2019-01-06T23:28:12.265Z,23.27
2019-01-06T23:30:47.337Z,25.03
2019-01-06T23:33:36.385Z,24.60
2019-01-06T23:36:07.464Z,24.13
2019-01-06T23:38:38.570Z,26.77
2019-01-06T23:41:09.691Z,24.37
2019-01-06T23:43:43.616Z,25.37
2019-01-06T23:46:17.391Z,25.80
2019-01-06T23:48:51.371Z,26.67
2019-01-06T23:51:38.698Z,26.07
2019-01-06T23:54:09.792Z,23.83
2019-01-06T23:56:54.507Z,25.83
2019-01-06T23:59:25.673Z,27.20
